sensor_id;sensor_type;location;lat;lon;timestamp;temperature;humidity
7894;DHT22;51343;51.396;6.656;2022-11-15T00:02:00;9.60;99.90
7894;DHT22;51343;51.396;6.656;2022-11-15T00:04:29;9.60;99.90
7894;DHT22;51343;51.396;6.656;2022-11-15T00:06:55;9.70;99.90
7894;DHT22;51343;51.396;6.656;2022-11-15T00:09:22;9.80;99.90
7894;DHT22;51343;51.396;6.656;2022-11-15T00:11:49;9.80;99.90
7894;DHT22;51343;51.396;6.656;2022-11-15T00:14:17;9.80;99.90
7894;DHT22;51343;51.396;6.656;2022-11-15T00:16:45;9.80;99.90
7894;DHT22;51343;51.396;6.656;2022-11-15T00:19:12;9.90;99.90
7894;DHT22;51343;51.396;6.656;2022-11-15T00:21:39;9.90;99.90
7894;DHT22;51343;51.396;6.656;2022-11-15T00:24:05;9.90;99.90
7894;DHT22;51343;51.396;6.656;2022-11-15T00:26:32;10.00;99.90
7894;DHT22;51343;51.396;6.656;2022-11-15T00:28:59;9.90;99.90
7894;DHT22;51343;51.396;6.656;2022-11-15T00:31:26;10.00;99.90
7894;DHT22;51343;51.396;6.656;2022-11-15T00:33:54;10.00;99.90
7894;DHT22;51343;51.396;6.656;2022-11-15T00:36:20;10.00;99.90
7894;DHT22;51343;51.396;6.656;2022-11-15T00:38:47;10.00;99.90
7894;DHT22;51343;51.396;6.656;2022-11-15T00:41:14;10.00;99.90
7894;DHT22;51343;51.396;6.656;2022-11-15T00:43:40;10.00;99.90
7894;DHT22;51343;51.396;6.656;2022-11-15T00:46:08;10.00;99.90
7894;DHT22;51343;51.396;6.656;2022-11-15T00:48:35;10.10;99.90
7894;DHT22;51343;51.396;6.656;2022-11-15T00:51:03;10.10;99.90
7894;DHT22;51343;51.396;6.656;2022-11-15T00:53:30;10.10;99.90
7894;DHT22;51343;51.396;6.656;2022-11-15T00:55:56;10.10;99.90
7894;DHT22;51343;51.396;6.656;2022-11-15T00:58:23;10.10;99.90
7894;DHT22;51343;51.396;6.656;2022-11-15T01:00:50;10.10;99.90
7894;DHT22;51343;51.396;6.656;2022-11-15T01:03:17;10.10;99.90
7894;DHT22;51343;51.396;6.656;2022-11-15T01:05:43;10.20;99.90
7894;DHT22;51343;51.396;6.656;2022-11-15T01:08:13;10.20;99.90
7894;DHT22;51343;51.396;6.656;2022-11-15T01:10:40;10.20;99.90
7894;DHT22;51343;51.396;6.656;2022-11-15T01:13:07;10.30;99.90
7894;DHT22;51343;51.396;6.656;2022-11-15T01:15:33;10.30;99.90
7894;DHT22;51343;51.396;6.656;2022-11-15T01:18:00;10.30;99.90
7894;DHT22;51343;51.396;6.656;2022-11-15T01:20:27;10.30;99.90
7894;DHT22;51343;51.396;6.656;2022-11-15T01:22:53;10.30;99.90
7894;DHT22;51343;51.396;6.656;2022-11-15T01:25:21;10.30;99.90
7894;DHT22;51343;51.396;6.656;2022-11-15T01:27:48;10.40;99.90
7894;DHT22;51343;51.396;6.656;2022-11-15T01:30:15;10.40;99.90
7894;DHT22;51343;51.396;6.656;2022-11-15T01:32:41;10.50;99.90
7894;DHT22;51343;51.396;6.656;2022-11-15T01:35:08;10.50;99.90
7894;DHT22;51343;51.396;6.656;2022-11-15T01:37:35;10.50;99.90
7894;DHT22;51343;51.396;6.656;2022-11-15T01:40:02;10.50;99.90
7894;DHT22;51343;51.396;6.656;2022-11-15T01:42:30;10.60;99.90
7894;DHT22;51343;51.396;6.656;2022-11-15T01:44:56;10.50;99.90
7894;DHT22;51343;51.396;6.656;2022-11-15T01:47:24;10.50;99.90
7894;DHT22;51343;51.396;6.656;2022-11-15T01:49:52;10.60;99.90
7894;DHT22;51343;51.396;6.656;2022-11-15T01:52:22;10.60;99.90
7894;DHT22;51343;51.396;6.656;2022-11-15T01:54:50;10.60;99.90
7894;DHT22;51343;51.396;6.656;2022-11-15T01:57:18;10.60;99.90
7894;DHT22;51343;51.396;6.656;2022-11-15T01:59:47;10.60;99.90
7894;DHT22;51343;51.396;6.656;2022-11-15T02:02:13;10.60;99.90
7894;DHT22;51343;51.396;6.656;2022-11-15T02:04:41;10.70;99.90
7894;DHT22;51343;51.396;6.656;2022-11-15T02:07:08;10.70;99.90
7894;DHT22;51343;51.396;6.656;2022-11-15T02:09:36;10.70;99.90
7894;DHT22;51343;51.396;6.656;2022-11-15T02:12:03;10.80;99.90
7894;DHT22;51343;51.396;6.656;2022-11-15T02:14:30;10.70;99.90
7894;DHT22;51343;51.396;6.656;2022-11-15T02:17:01;10.70;99.90
7894;DHT22;51343;51.396;6.656;2022-11-15T02:19:32;10.80;99.90
7894;DHT22;51343;51.396;6.656;2022-11-15T02:22:05;10.80;99.90
7894;DHT22;51343;51.396;6.656;2022-11-15T02:24:44;10.70;99.90
7894;DHT22;51343;51.396;6.656;2022-11-15T02:27:29;10.80;99.90
7894;DHT22;51343;51.396;6.656;2022-11-15T02:30:04;10.80;99.90
7894;DHT22;51343;51.396;6.656;2022-11-15T02:32:35;10.80;99.90
7894;DHT22;51343;51.396;6.656;2022-11-15T02:35:05;10.80;99.90
7894;DHT22;51343;51.396;6.656;2022-11-15T02:37:36;10.80;99.90
7894;DHT22;51343;51.396;6.656;2022-11-15T02:40:06;10.80;99.90
7894;DHT22;51343;51.396;6.656;2022-11-15T02:42:36;10.80;99.90
7894;DHT22;51343;51.396;6.656;2022-11-15T02:45:24;10.90;99.90
7894;DHT22;51343;51.396;6.656;2022-11-15T02:47:54;10.90;99.90
7894;DHT22;51343;51.396;6.656;2022-11-15T02:50:24;10.90;99.90
7894;DHT22;51343;51.396;6.656;2022-11-15T02:52:51;10.90;99.90
7894;DHT22;51343;51.396;6.656;2022-11-15T02:55:31;10.90;99.90
7894;DHT22;51343;51.396;6.656;2022-11-15T02:58:01;10.90;99.90
7894;DHT22;51343;51.396;6.656;2022-11-15T03:00:31;10.90;99.90
7894;DHT22;51343;51.396;6.656;2022-11-15T03:03:15;10.90;99.90
7894;DHT22;51343;51.396;6.656;2022-11-15T03:05:46;11.00;99.90
7894;DHT22;51343;51.396;6.656;2022-11-15T03:08:17;11.00;99.90
7894;DHT22;51343;51.396;6.656;2022-11-15T03:10:50;11.00;99.90
7894;DHT22;51343;51.396;6.656;2022-11-15T03:13:21;11.00;99.90
7894;DHT22;51343;51.396;6.656;2022-11-15T03:15:52;11.00;99.90
7894;DHT22;51343;51.396;6.656;2022-11-15T03:18:21;11.00;99.90
7894;DHT22;51343;51.396;6.656;2022-11-15T03:20:49;11.10;99.90
7894;DHT22;51343;51.396;6.656;2022-11-15T03:23:16;11.10;99.90
7894;DHT22;51343;51.396;6.656;2022-11-15T03:25:45;11.20;99.90
7894;DHT22;51343;51.396;6.656;2022-11-15T03:28:14;11.10;99.90
7894;DHT22;51343;51.396;6.656;2022-11-15T03:30:42;11.20;99.90
7894;DHT22;51343;51.396;6.656;2022-11-15T03:33:10;11.20;99.90
7894;DHT22;51343;51.396;6.656;2022-11-15T03:35:38;11.20;99.90
7894;DHT22;51343;51.396;6.656;2022-11-15T03:38:09;11.20;99.90
7894;DHT22;51343;51.396;6.656;2022-11-15T03:40:38;11.20;99.90
7894;DHT22;51343;51.396;6.656;2022-11-15T03:43:07;11.20;99.90
7894;DHT22;51343;51.396;6.656;2022-11-15T03:45:37;11.20;99.90
7894;DHT22;51343;51.396;6.656;2022-11-15T03:48:08;11.30;99.90
7894;DHT22;51343;51.396;6.656;2022-11-15T03:50:36;11.30;99.90
7894;DHT22;51343;51.396;6.656;2022-11-15T03:53:04;11.30;99.90
7894;DHT22;51343;51.396;6.656;2022-11-15T03:55:32;11.30;99.90
7894;DHT22;51343;51.396;6.656;2022-11-15T03:57:59;11.30;99.90
7894;DHT22;51343;51.396;6.656;2022-11-15T04:00:26;11.40;99.90
7894;DHT22;51343;51.396;6.656;2022-11-15T04:02:54;11.40;99.90
7894;DHT22;51343;51.396;6.656;2022-11-15T04:05:21;11.40;99.90
7894;DHT22;51343;51.396;6.656;2022-11-15T04:07:47;11.40;99.90
7894;DHT22;51343;51.396;6.656;2022-11-15T04:10:16;11.50;99.90
7894;DHT22;51343;51.396;6.656;2022-11-15T04:12:43;11.50;99.90
7894;DHT22;51343;51.396;6.656;2022-11-15T04:15:12;11.50;99.90
7894;DHT22;51343;51.396;6.656;2022-11-15T04:17:41;11.50;99.90
7894;DHT22;51343;51.396;6.656;2022-11-15T04:20:10;11.50;99.90
7894;DHT22;51343;51.396;6.656;2022-11-15T04:23:00;11.50;99.90
7894;DHT22;51343;51.396;6.656;2022-11-15T04:25:46;11.50;99.90
7894;DHT22;51343;51.396;6.656;2022-11-15T04:28:13;11.60;99.90
7894;DHT22;51343;51.396;6.656;2022-11-15T04:30:40;11.60;99.90
7894;DHT22;51343;51.396;6.656;2022-11-15T04:33:13;11.60;99.90
7894;DHT22;51343;51.396;6.656;2022-11-15T04:35:39;11.60;99.90
7894;DHT22;51343;51.396;6.656;2022-11-15T04:38:07;11.60;99.90
7894;DHT22;51343;51.396;6.656;2022-11-15T04:40:33;11.60;99.90
7894;DHT22;51343;51.396;6.656;2022-11-15T04:43:01;11.60;99.90
7894;DHT22;51343;51.396;6.656;2022-11-15T04:45:28;11.60;99.90
7894;DHT22;51343;51.396;6.656;2022-11-15T04:47:54;11.70;99.90
7894;DHT22;51343;51.396;6.656;2022-11-15T04:50:21;11.70;99.90
7894;DHT22;51343;51.396;6.656;2022-11-15T04:52:50;11.70;99.90
7894;DHT22;51343;51.396;6.656;2022-11-15T04:55:17;11.70;99.90
7894;DHT22;51343;51.396;6.656;2022-11-15T04:57:43;11.80;99.90
7894;DHT22;51343;51.396;6.656;2022-11-15T05:00:12;11.70;99.90
7894;DHT22;51343;51.396;6.656;2022-11-15T05:02:40;11.80;99.90
7894;DHT22;51343;51.396;6.656;2022-11-15T05:05:25;11.80;99.90
7894;DHT22;51343;51.396;6.656;2022-11-15T05:07:52;11.80;99.90
7894;DHT22;51343;51.396;6.656;2022-11-15T05:10:18;11.80;99.90
7894;DHT22;51343;51.396;6.656;2022-11-15T05:12:46;11.80;99.90
7894;DHT22;51343;51.396;6.656;2022-11-15T05:15:14;11.80;99.90
7894;DHT22;51343;51.396;6.656;2022-11-15T05:17:41;11.70;99.90
7894;DHT22;51343;51.396;6.656;2022-11-15T05:20:08;11.70;99.90
7894;DHT22;51343;51.396;6.656;2022-11-15T05:22:34;11.70;99.90
7894;DHT22;51343;51.396;6.656;2022-11-15T05:25:01;11.70;99.90
7894;DHT22;51343;51.396;6.656;2022-11-15T05:27:28;11.70;99.90
7894;DHT22;51343;51.396;6.656;2022-11-15T05:29:54;11.70;99.90
7894;DHT22;51343;51.396;6.656;2022-11-15T05:32:22;11.70;99.90
7894;DHT22;51343;51.396;6.656;2022-11-15T05:34:50;11.70;99.90
7894;DHT22;51343;51.396;6.656;2022-11-15T05:37:18;11.70;99.90
7894;DHT22;51343;51.396;6.656;2022-11-15T05:39:45;11.70;99.90
7894;DHT22;51343;51.396;6.656;2022-11-15T05:42:12;11.70;99.90
7894;DHT22;51343;51.396;6.656;2022-11-15T05:44:40;11.70;99.90
7894;DHT22;51343;51.396;6.656;2022-11-15T05:47:08;11.70;99.90
7894;DHT22;51343;51.396;6.656;2022-11-15T05:49:39;11.70;99.90
7894;DHT22;51343;51.396;6.656;2022-11-15T05:52:07;11.70;99.90
7894;DHT22;51343;51.396;6.656;2022-11-15T05:54:35;11.70;99.90
7894;DHT22;51343;51.396;6.656;2022-11-15T05:57:03;11.70;99.90
7894;DHT22;51343;51.396;6.656;2022-11-15T05:59:30;11.70;99.90
7894;DHT22;51343;51.396;6.656;2022-11-15T06:01:58;11.70;99.90
7894;DHT22;51343;51.396;6.656;2022-11-15T06:04:24;11.60;99.90
7894;DHT22;51343;51.396;6.656;2022-11-15T06:06:54;11.60;99.90
7894;DHT22;51343;51.396;6.656;2022-11-15T06:09:21;11.70;99.90
7894;DHT22;51343;51.396;6.656;2022-11-15T06:11:48;11.70;99.90
7894;DHT22;51343;51.396;6.656;2022-11-15T06:14:15;11.70;99.90
7894;DHT22;51343;51.396;6.656;2022-11-15T06:16:41;11.60;99.90
7894;DHT22;51343;51.396;6.656;2022-11-15T06:19:08;11.70;99.90
7894;DHT22;51343;51.396;6.656;2022-11-15T06:21:35;11.60;99.90
7894;DHT22;51343;51.396;6.656;2022-11-15T06:24:03;11.70;99.90
7894;DHT22;51343;51.396;6.656;2022-11-15T06:26:30;11.70;99.90
7894;DHT22;51343;51.396;6.656;2022-11-15T06:28:57;11.60;99.90
7894;DHT22;51343;51.396;6.656;2022-11-15T06:31:24;11.60;99.90
7894;DHT22;51343;51.396;6.656;2022-11-15T06:33:50;11.60;99.90
7894;DHT22;51343;51.396;6.656;2022-11-15T06:36:17;11.60;99.90
7894;DHT22;51343;51.396;6.656;2022-11-15T06:38:44;11.60;99.90
7894;DHT22;51343;51.396;6.656;2022-11-15T06:41:13;11.70;99.90
7894;DHT22;51343;51.396;6.656;2022-11-15T06:43:40;11.70;99.90
7894;DHT22;51343;51.396;6.656;2022-11-15T06:46:07;11.70;99.90
7894;DHT22;51343;51.396;6.656;2022-11-15T06:48:34;11.70;99.90
7894;DHT22;51343;51.396;6.656;2022-11-15T06:51:02;11.60;99.90
7894;DHT22;51343;51.396;6.656;2022-11-15T06:53:29;11.60;99.90
7894;DHT22;51343;51.396;6.656;2022-11-15T06:55:58;11.70;99.90
7894;DHT22;51343;51.396;6.656;2022-11-15T06:58:26;11.70;1.00
7894;DHT22;51343;51.396;6.656;2022-11-15T07:00:53;11.70;1.00
7894;DHT22;51343;51.396;6.656;2022-11-15T07:03:20;11.70;1.00
7894;DHT22;51343;51.396;6.656;2022-11-15T07:05:50;11.70;1.00
7894;DHT22;51343;51.396;6.656;2022-11-15T07:08:17;11.80;1.00
7894;DHT22;51343;51.396;6.656;2022-11-15T07:10:44;11.80;1.00
7894;DHT22;51343;51.396;6.656;2022-11-15T07:13:11;11.70;1.00
7894;DHT22;51343;51.396;6.656;2022-11-15T07:15:40;11.80;1.00
7894;DHT22;51343;51.396;6.656;2022-11-15T07:18:07;11.80;1.00
7894;DHT22;51343;51.396;6.656;2022-11-15T07:20:34;11.80;1.00
7894;DHT22;51343;51.396;6.656;2022-11-15T07:23:01;11.90;53.60
7894;DHT22;51343;51.396;6.656;2022-11-15T07:25:27;11.90;99.90
7894;DHT22;51343;51.396;6.656;2022-11-15T07:27:54;11.90;99.90
7894;DHT22;51343;51.396;6.656;2022-11-15T07:30:22;12.00;99.90
7894;DHT22;51343;51.396;6.656;2022-11-15T07:32:53;12.00;99.90
7894;DHT22;51343;51.396;6.656;2022-11-15T07:35:19;12.10;99.90
7894;DHT22;51343;51.396;6.656;2022-11-15T07:37:52;12.10;99.90
7894;DHT22;51343;51.396;6.656;2022-11-15T07:40:19;12.10;1.00
7894;DHT22;51343;51.396;6.656;2022-11-15T07:42:45;12.00;99.90
7894;DHT22;51343;51.396;6.656;2022-11-15T07:45:21;11.80;99.90
7894;DHT22;51343;51.396;6.656;2022-11-15T07:47:48;11.70;1.00
7894;DHT22;51343;51.396;6.656;2022-11-15T07:50:17;11.50;99.90
7894;DHT22;51343;51.396;6.656;2022-11-15T07:52:45;11.40;99.90
7894;DHT22;51343;51.396;6.656;2022-11-15T07:55:13;11.20;99.90
7894;DHT22;51343;51.396;6.656;2022-11-15T07:57:40;11.10;99.90
7894;DHT22;51343;51.396;6.656;2022-11-15T08:00:07;11.00;99.90
7894;DHT22;51343;51.396;6.656;2022-11-15T08:02:34;10.90;99.90
7894;DHT22;51343;51.396;6.656;2022-11-15T08:05:00;10.80;99.90
7894;DHT22;51343;51.396;6.656;2022-11-15T08:07:29;10.70;99.90
7894;DHT22;51343;51.396;6.656;2022-11-15T08:09:56;10.70;99.90
7894;DHT22;51343;51.396;6.656;2022-11-15T08:12:23;10.60;99.90
7894;DHT22;51343;51.396;6.656;2022-11-15T08:14:50;10.60;99.90
7894;DHT22;51343;51.396;6.656;2022-11-15T08:17:18;10.60;99.90
7894;DHT22;51343;51.396;6.656;2022-11-15T08:19:47;10.50;99.90
7894;DHT22;51343;51.396;6.656;2022-11-15T08:22:14;10.50;99.90
7894;DHT22;51343;51.396;6.656;2022-11-15T08:24:45;10.50;99.90
7894;DHT22;51343;51.396;6.656;2022-11-15T08:27:11;10.50;99.90
7894;DHT22;51343;51.396;6.656;2022-11-15T08:29:41;10.60;99.90
7894;DHT22;51343;51.396;6.656;2022-11-15T08:32:08;10.60;99.90
7894;DHT22;51343;51.396;6.656;2022-11-15T08:34:35;10.60;99.90
7894;DHT22;51343;51.396;6.656;2022-11-15T08:37:02;10.60;99.90
7894;DHT22;51343;51.396;6.656;2022-11-15T08:39:28;10.70;99.90
7894;DHT22;51343;51.396;6.656;2022-11-15T08:41:56;10.80;99.90
7894;DHT22;51343;51.396;6.656;2022-11-15T08:44:23;10.80;99.90
7894;DHT22;51343;51.396;6.656;2022-11-15T08:46:56;10.80;99.90
7894;DHT22;51343;51.396;6.656;2022-11-15T08:49:23;10.80;99.90
7894;DHT22;51343;51.396;6.656;2022-11-15T08:51:49;10.80;99.90
7894;DHT22;51343;51.396;6.656;2022-11-15T08:54:16;10.80;99.90
7894;DHT22;51343;51.396;6.656;2022-11-15T08:56:44;10.80;99.90
7894;DHT22;51343;51.396;6.656;2022-11-15T08:59:12;10.80;99.90
7894;DHT22;51343;51.396;6.656;2022-11-15T09:01:39;10.80;99.90
7894;DHT22;51343;51.396;6.656;2022-11-15T09:04:07;10.90;99.90
7894;DHT22;51343;51.396;6.656;2022-11-15T09:06:34;10.90;99.90
7894;DHT22;51343;51.396;6.656;2022-11-15T09:09:01;11.00;99.90
7894;DHT22;51343;51.396;6.656;2022-11-15T09:11:28;11.00;99.90
7894;DHT22;51343;51.396;6.656;2022-11-15T09:13:54;11.10;99.90
7894;DHT22;51343;51.396;6.656;2022-11-15T09:16:22;11.10;99.90
7894;DHT22;51343;51.396;6.656;2022-11-15T09:18:49;11.10;99.90
7894;DHT22;51343;51.396;6.656;2022-11-15T09:21:18;11.20;99.90
7894;DHT22;51343;51.396;6.656;2022-11-15T09:23:45;11.20;99.90
7894;DHT22;51343;51.396;6.656;2022-11-15T09:26:12;11.30;99.90
7894;DHT22;51343;51.396;6.656;2022-11-15T09:28:39;11.40;99.90
7894;DHT22;51343;51.396;6.656;2022-11-15T09:31:08;11.60;99.90
7894;DHT22;51343;51.396;6.656;2022-11-15T09:33:36;11.70;99.90
7894;DHT22;51343;51.396;6.656;2022-11-15T09:36:06;11.90;99.90
7894;DHT22;51343;51.396;6.656;2022-11-15T09:38:33;12.10;99.90
7894;DHT22;51343;51.396;6.656;2022-11-15T09:41:13;12.20;99.90
7894;DHT22;51343;51.396;6.656;2022-11-15T09:43:45;12.20;99.90
7894;DHT22;51343;51.396;6.656;2022-11-15T09:46:15;12.30;99.90
7894;DHT22;51343;51.396;6.656;2022-11-15T09:51:24;12.20;99.90
7894;DHT22;51343;51.396;6.656;2022-11-15T09:53:55;12.20;99.90
7894;DHT22;51343;51.396;6.656;2022-11-15T09:56:24;12.10;99.90
7894;DHT22;51343;51.396;6.656;2022-11-15T09:58:54;12.00;99.90
7894;DHT22;51343;51.396;6.656;2022-11-15T10:01:30;11.90;99.90
7894;DHT22;51343;51.396;6.656;2022-11-15T10:04:00;11.90;99.90
7894;DHT22;51343;51.396;6.656;2022-11-15T10:06:29;11.90;99.90
7894;DHT22;51343;51.396;6.656;2022-11-15T10:08:58;11.90;99.90
7894;DHT22;51343;51.396;6.656;2022-11-15T10:11:28;11.90;99.90
7894;DHT22;51343;51.396;6.656;2022-11-15T10:13:55;11.90;99.90
7894;DHT22;51343;51.396;6.656;2022-11-15T10:16:27;11.90;99.90
7894;DHT22;51343;51.396;6.656;2022-11-15T10:19:00;11.90;99.90
7894;DHT22;51343;51.396;6.656;2022-11-15T10:21:32;12.00;99.90
7894;DHT22;51343;51.396;6.656;2022-11-15T10:24:07;12.00;99.90
7894;DHT22;51343;51.396;6.656;2022-11-15T10:26:36;12.10;99.90
7894;DHT22;51343;51.396;6.656;2022-11-15T10:29:03;12.10;99.90
7894;DHT22;51343;51.396;6.656;2022-11-15T10:31:31;12.10;99.90
7894;DHT22;51343;51.396;6.656;2022-11-15T10:33:59;12.10;99.90
7894;DHT22;51343;51.396;6.656;2022-11-15T10:36:37;12.10;99.90
7894;DHT22;51343;51.396;6.656;2022-11-15T10:39:11;12.20;99.90
7894;DHT22;51343;51.396;6.656;2022-11-15T10:41:44;12.20;99.90
7894;DHT22;51343;51.396;6.656;2022-11-15T10:44:12;12.30;99.90
7894;DHT22;51343;51.396;6.656;2022-11-15T10:46:44;12.40;99.90
7894;DHT22;51343;51.396;6.656;2022-11-15T10:49:12;12.50;99.90
7894;DHT22;51343;51.396;6.656;2022-11-15T10:51:42;12.60;99.90
7894;DHT22;51343;51.396;6.656;2022-11-15T10:54:10;12.60;99.90
7894;DHT22;51343;51.396;6.656;2022-11-15T10:56:38;12.70;99.90
7894;DHT22;51343;51.396;6.656;2022-11-15T10:59:12;12.80;99.90
7894;DHT22;51343;51.396;6.656;2022-11-15T11:01:45;12.80;99.90
7894;DHT22;51343;51.396;6.656;2022-11-15T11:04:12;12.80;99.90
7894;DHT22;51343;51.396;6.656;2022-11-15T11:06:47;12.90;99.90
7894;DHT22;51343;51.396;6.656;2022-11-15T11:09:22;13.00;99.90
7894;DHT22;51343;51.396;6.656;2022-11-15T11:11:49;13.10;99.90
7894;DHT22;51343;51.396;6.656;2022-11-15T11:14:22;13.30;99.90
7894;DHT22;51343;51.396;6.656;2022-11-15T11:16:52;13.50;99.90
7894;DHT22;51343;51.396;6.656;2022-11-15T11:19:35;13.50;99.90
7894;DHT22;51343;51.396;6.656;2022-11-15T11:22:09;13.40;99.90
7894;DHT22;51343;51.396;6.656;2022-11-15T11:24:40;13.40;99.90
7894;DHT22;51343;51.396;6.656;2022-11-15T11:27:20;13.50;99.90
7894;DHT22;51343;51.396;6.656;2022-11-15T11:29:54;13.70;99.90
7894;DHT22;51343;51.396;6.656;2022-11-15T11:32:30;13.60;99.90
7894;DHT22;51343;51.396;6.656;2022-11-15T11:35:03;13.70;99.90
7894;DHT22;51343;51.396;6.656;2022-11-15T11:37:37;13.70;99.90
7894;DHT22;51343;51.396;6.656;2022-11-15T11:40:10;13.70;99.90
7894;DHT22;51343;51.396;6.656;2022-11-15T11:42:42;13.70;99.90
7894;DHT22;51343;51.396;6.656;2022-11-15T11:45:15;13.70;99.90
7894;DHT22;51343;51.396;6.656;2022-11-15T11:47:46;13.70;99.90
7894;DHT22;51343;51.396;6.656;2022-11-15T11:50:14;13.60;99.90
7894;DHT22;51343;51.396;6.656;2022-11-15T11:52:44;13.70;99.90
7894;DHT22;51343;51.396;6.656;2022-11-15T11:55:18;13.80;99.90
7894;DHT22;51343;51.396;6.656;2022-11-15T11:57:46;13.70;99.90
7894;DHT22;51343;51.396;6.656;2022-11-15T12:00:18;13.80;99.90
7894;DHT22;51343;51.396;6.656;2022-11-15T12:03:01;13.80;99.90
7894;DHT22;51343;51.396;6.656;2022-11-15T12:05:32;13.90;99.90
7894;DHT22;51343;51.396;6.656;2022-11-15T12:10:48;13.70;99.90
7894;DHT22;51343;51.396;6.656;2022-11-15T12:13:18;13.60;99.90
7894;DHT22;51343;51.396;6.656;2022-11-15T12:15:47;13.60;99.90
7894;DHT22;51343;51.396;6.656;2022-11-15T12:18:17;13.50;99.90
7894;DHT22;51343;51.396;6.656;2022-11-15T12:20:48;13.50;99.90
7894;DHT22;51343;51.396;6.656;2022-11-15T12:23:17;13.50;99.90
7894;DHT22;51343;51.396;6.656;2022-11-15T12:25:50;13.40;99.90
7894;DHT22;51343;51.396;6.656;2022-11-15T12:28:19;13.40;99.90
7894;DHT22;51343;51.396;6.656;2022-11-15T12:30:49;13.40;99.90
7894;DHT22;51343;51.396;6.656;2022-11-15T12:33:30;13.40;99.90
7894;DHT22;51343;51.396;6.656;2022-11-15T12:35:59;13.40;99.90
7894;DHT22;51343;51.396;6.656;2022-11-15T12:41:15;13.40;99.90
7894;DHT22;51343;51.396;6.656;2022-11-15T12:43:43;13.40;99.90
7894;DHT22;51343;51.396;6.656;2022-11-15T12:46:14;13.50;99.90
7894;DHT22;51343;51.396;6.656;2022-11-15T12:48:50;13.50;99.90
7894;DHT22;51343;51.396;6.656;2022-11-15T12:51:19;13.50;99.90
7894;DHT22;51343;51.396;6.656;2022-11-15T12:53:46;13.60;99.90
7894;DHT22;51343;51.396;6.656;2022-11-15T12:56:23;13.60;99.90
7894;DHT22;51343;51.396;6.656;2022-11-15T12:58:51;13.60;99.90
7894;DHT22;51343;51.396;6.656;2022-11-15T13:06:49;13.70;99.90
7894;DHT22;51343;51.396;6.656;2022-11-15T13:15:08;13.60;99.90
7894;DHT22;51343;51.396;6.656;2022-11-15T13:17:55;13.60;99.90
7894;DHT22;51343;51.396;6.656;2022-11-15T13:20:23;13.60;99.90
7894;DHT22;51343;51.396;6.656;2022-11-15T13:23:00;13.60;99.90
7894;DHT22;51343;51.396;6.656;2022-11-15T13:28:18;13.60;99.90
7894;DHT22;51343;51.396;6.656;2022-11-15T13:30:51;13.60;99.90
7894;DHT22;51343;51.396;6.656;2022-11-15T13:33:20;13.60;99.90
7894;DHT22;51343;51.396;6.656;2022-11-15T13:35:50;13.50;99.90
7894;DHT22;51343;51.396;6.656;2022-11-15T13:38:19;13.50;99.90
7894;DHT22;51343;51.396;6.656;2022-11-15T13:40:46;13.60;99.90
7894;DHT22;51343;51.396;6.656;2022-11-15T13:43:23;13.60;99.90
7894;DHT22;51343;51.396;6.656;2022-11-15T13:46:03;13.70;99.90
7894;DHT22;51343;51.396;6.656;2022-11-15T13:48:31;13.80;99.90
7894;DHT22;51343;51.396;6.656;2022-11-15T13:50:59;13.90;99.90
7894;DHT22;51343;51.396;6.656;2022-11-15T13:53:26;13.90;99.90
7894;DHT22;51343;51.396;6.656;2022-11-15T13:55:53;14.00;99.90
7894;DHT22;51343;51.396;6.656;2022-11-15T13:58:21;13.90;99.90
7894;DHT22;51343;51.396;6.656;2022-11-15T14:00:47;13.90;99.90
7894;DHT22;51343;51.396;6.656;2022-11-15T14:03:16;13.80;99.90
7894;DHT22;51343;51.396;6.656;2022-11-15T14:05:45;13.70;99.90
7894;DHT22;51343;51.396;6.656;2022-11-15T14:08:24;13.70;99.90
7894;DHT22;51343;51.396;6.656;2022-11-15T14:11:05;13.70;99.90
7894;DHT22;51343;51.396;6.656;2022-11-15T14:13:32;13.70;99.90
7894;DHT22;51343;51.396;6.656;2022-11-15T14:16:12;13.80;99.90
7894;DHT22;51343;51.396;6.656;2022-11-15T14:18:40;13.80;99.90
7894;DHT22;51343;51.396;6.656;2022-11-15T14:21:09;13.80;99.90
7894;DHT22;51343;51.396;6.656;2022-11-15T14:23:36;13.70;99.90
7894;DHT22;51343;51.396;6.656;2022-11-15T14:26:02;13.70;99.90
7894;DHT22;51343;51.396;6.656;2022-11-15T14:28:31;13.60;99.90
7894;DHT22;51343;51.396;6.656;2022-11-15T14:31:04;13.50;99.90
7894;DHT22;51343;51.396;6.656;2022-11-15T14:33:35;13.50;99.90
7894;DHT22;51343;51.396;6.656;2022-11-15T14:36:03;13.40;99.90
7894;DHT22;51343;51.396;6.656;2022-11-15T14:38:32;13.40;99.90
7894;DHT22;51343;51.396;6.656;2022-11-15T14:40:59;13.30;99.90
7894;DHT22;51343;51.396;6.656;2022-11-15T14:43:27;13.30;99.90
7894;DHT22;51343;51.396;6.656;2022-11-15T14:45:54;13.30;99.90
7894;DHT22;51343;51.396;6.656;2022-11-15T14:48:21;13.30;99.90
7894;DHT22;51343;51.396;6.656;2022-11-15T14:50:48;13.20;99.90
7894;DHT22;51343;51.396;6.656;2022-11-15T14:53:15;13.20;99.90
7894;DHT22;51343;51.396;6.656;2022-11-15T14:55:43;13.20;99.90
7894;DHT22;51343;51.396;6.656;2022-11-15T14:58:10;13.20;99.90
7894;DHT22;51343;51.396;6.656;2022-11-15T15:00:38;13.20;99.90
7894;DHT22;51343;51.396;6.656;2022-11-15T15:03:05;13.10;99.90
7894;DHT22;51343;51.396;6.656;2022-11-15T15:05:33;13.10;99.90
7894;DHT22;51343;51.396;6.656;2022-11-15T15:08:00;13.10;99.90
7894;DHT22;51343;51.396;6.656;2022-11-15T15:10:32;13.10;99.90
7894;DHT22;51343;51.396;6.656;2022-11-15T15:13:01;13.10;99.90
7894;DHT22;51343;51.396;6.656;2022-11-15T15:15:30;13.10;99.90
7894;DHT22;51343;51.396;6.656;2022-11-15T15:17:57;13.00;99.90
7894;DHT22;51343;51.396;6.656;2022-11-15T15:20:24;13.00;99.90
7894;DHT22;51343;51.396;6.656;2022-11-15T15:22:51;13.00;99.90
7894;DHT22;51343;51.396;6.656;2022-11-15T15:25:20;13.00;99.90
7894;DHT22;51343;51.396;6.656;2022-11-15T15:27:47;13.00;99.90
7894;DHT22;51343;51.396;6.656;2022-11-15T15:30:17;13.00;99.90
7894;DHT22;51343;51.396;6.656;2022-11-15T15:32:43;12.90;99.90
7894;DHT22;51343;51.396;6.656;2022-11-15T15:35:11;12.90;99.90
7894;DHT22;51343;51.396;6.656;2022-11-15T15:37:38;12.90;99.90
7894;DHT22;51343;51.396;6.656;2022-11-15T15:40:08;12.80;99.90
7894;DHT22;51343;51.396;6.656;2022-11-15T15:42:38;12.80;99.90
7894;DHT22;51343;51.396;6.656;2022-11-15T15:45:06;12.80;99.90
7894;DHT22;51343;51.396;6.656;2022-11-15T15:47:34;12.70;99.90
7894;DHT22;51343;51.396;6.656;2022-11-15T15:50:01;12.70;99.90
7894;DHT22;51343;51.396;6.656;2022-11-15T15:52:28;12.70;99.90
7894;DHT22;51343;51.396;6.656;2022-11-15T15:54:54;12.70;99.90
7894;DHT22;51343;51.396;6.656;2022-11-15T15:57:21;12.80;99.90
7894;DHT22;51343;51.396;6.656;2022-11-15T15:59:54;12.80;99.90
7894;DHT22;51343;51.396;6.656;2022-11-15T16:02:20;12.80;99.90
7894;DHT22;51343;51.396;6.656;2022-11-15T16:04:50;12.70;99.90
7894;DHT22;51343;51.396;6.656;2022-11-15T16:07:20;12.80;99.90
7894;DHT22;51343;51.396;6.656;2022-11-15T16:09:50;12.70;99.90
7894;DHT22;51343;51.396;6.656;2022-11-15T16:12:29;12.70;99.90
7894;DHT22;51343;51.396;6.656;2022-11-15T16:14:56;12.70;99.90
7894;DHT22;51343;51.396;6.656;2022-11-15T16:17:23;12.70;99.90
7894;DHT22;51343;51.396;6.656;2022-11-15T16:19:52;12.70;99.90
7894;DHT22;51343;51.396;6.656;2022-11-15T16:22:19;12.70;99.90